sensor_id;sensor_type;location;lat;lon;timestamp;temperature;humidity
68177;DHT22;56478;50.982;7.032;2023-12-20T00:00:13;8.41;94.16
68177;DHT22;56478;50.982;7.032;2023-12-20T00:02:38;8.48;94.06
68177;DHT22;56478;50.982;7.032;2023-12-20T00:05:04;8.45;94.15
68177;DHT22;56478;50.982;7.032;2023-12-20T00:07:30;8.45;94.11
68177;DHT22;56478;50.982;7.032;2023-12-20T00:09:56;8.42;94.11
68177;DHT22;56478;50.982;7.032;2023-12-20T00:12:21;8.49;94.26
68177;DHT22;56478;50.982;7.032;2023-12-20T00:14:47;8.39;94.45
68177;DHT22;56478;50.982;7.032;2023-12-20T00:17:13;8.45;94.49
68177;DHT22;56478;50.982;7.032;2023-12-20T00:19:38;8.44;94.39
68177;DHT22;56478;50.982;7.032;2023-12-20T00:22:04;8.42;94.43
68177;DHT22;56478;50.982;7.032;2023-12-20T00:24:29;8.49;94.54
68177;DHT22;56478;50.982;7.032;2023-12-20T00:26:55;8.48;94.04
68177;DHT22;56478;50.982;7.032;2023-12-20T00:29:20;8.45;94.29
68177;DHT22;56478;50.982;7.032;2023-12-20T00:31:46;8.46;94.28
68177;DHT22;56478;50.982;7.032;2023-12-20T00:34:11;8.48;94.21
68177;DHT22;56478;50.982;7.032;2023-12-20T00:36:37;8.45;94.44
68177;DHT22;56478;50.982;7.032;2023-12-20T00:39:02;8.45;94.27
68177;DHT22;56478;50.982;7.032;2023-12-20T00:41:28;8.45;93.68
68177;DHT22;56478;50.982;7.032;2023-12-20T00:43:54;8.48;93.72
68177;DHT22;56478;50.982;7.032;2023-12-20T00:46:19;8.44;93.17
68177;DHT22;56478;50.982;7.032;2023-12-20T00:48:45;8.34;93.13
68177;DHT22;56478;50.982;7.032;2023-12-20T00:51:11;8.34;93.42
68177;DHT22;56478;50.982;7.032;2023-12-20T00:53:36;8.39;93.28
68177;DHT22;56478;50.982;7.032;2023-12-20T00:56:02;8.38;93.30
68177;DHT22;56478;50.982;7.032;2023-12-20T00:58:28;8.32;93.21
68177;DHT22;56478;50.982;7.032;2023-12-20T01:00:53;8.32;93.69
68177;DHT22;56478;50.982;7.032;2023-12-20T01:03:19;8.29;93.68
68177;DHT22;56478;50.982;7.032;2023-12-20T01:05:44;8.28;94.12
68177;DHT22;56478;50.982;7.032;2023-12-20T01:08:10;8.34;93.92
68177;DHT22;56478;50.982;7.032;2023-12-20T01:10:36;8.27;93.93
68177;DHT22;56478;50.982;7.032;2023-12-20T01:13:01;8.28;93.90
68177;DHT22;56478;50.982;7.032;2023-12-20T01:15:27;8.27;93.62
68177;DHT22;56478;50.982;7.032;2023-12-20T01:17:52;8.17;93.42
68177;DHT22;56478;50.982;7.032;2023-12-20T01:20:18;8.14;93.49
68177;DHT22;56478;50.982;7.032;2023-12-20T01:22:45;8.04;93.43
68177;DHT22;56478;50.982;7.032;2023-12-20T01:25:11;7.91;93.60
68177;DHT22;56478;50.982;7.032;2023-12-20T01:27:36;7.87;93.38
68177;DHT22;56478;50.982;7.032;2023-12-20T01:30:02;7.82;93.66
68177;DHT22;56478;50.982;7.032;2023-12-20T01:32:30;7.80;93.58
68177;DHT22;56478;50.982;7.032;2023-12-20T01:34:55;7.80;93.97
68177;DHT22;56478;50.982;7.032;2023-12-20T01:37:21;7.80;93.80
68177;DHT22;56478;50.982;7.032;2023-12-20T01:39:49;7.85;93.19
68177;DHT22;56478;50.982;7.032;2023-12-20T01:42:14;7.94;93.57
68177;DHT22;56478;50.982;7.032;2023-12-20T01:44:40;7.96;93.43
68177;DHT22;56478;50.982;7.032;2023-12-20T01:47:06;7.96;93.42
68177;DHT22;56478;50.982;7.032;2023-12-20T01:49:31;7.89;92.66
68177;DHT22;56478;50.982;7.032;2023-12-20T01:51:57;7.93;93.26
68177;DHT22;56478;50.982;7.032;2023-12-20T01:54:22;7.94;92.96
68177;DHT22;56478;50.982;7.032;2023-12-20T01:56:48;7.98;92.99
68177;DHT22;56478;50.982;7.032;2023-12-20T01:59:14;7.98;93.07
68177;DHT22;56478;50.982;7.032;2023-12-20T02:01:40;7.86;92.85
68177;DHT22;56478;50.982;7.032;2023-12-20T02:04:06;7.82;92.89
68177;DHT22;56478;50.982;7.032;2023-12-20T02:06:31;7.73;92.66
68177;DHT22;56478;50.982;7.032;2023-12-20T02:08:58;7.65;92.17
68177;DHT22;56478;50.982;7.032;2023-12-20T02:11:25;7.56;92.17
68177;DHT22;56478;50.982;7.032;2023-12-20T02:13:50;7.51;92.01
68177;DHT22;56478;50.982;7.032;2023-12-20T02:16:16;7.47;91.55
68177;DHT22;56478;50.982;7.032;2023-12-20T02:18:42;7.40;91.25
68177;DHT22;56478;50.982;7.032;2023-12-20T02:21:09;7.32;91.38
68177;DHT22;56478;50.982;7.032;2023-12-20T02:23:34;7.24;92.00
68177;DHT22;56478;50.982;7.032;2023-12-20T02:26:00;7.14;92.34
68177;DHT22;56478;50.982;7.032;2023-12-20T02:28:26;7.07;91.98
68177;DHT22;56478;50.982;7.032;2023-12-20T02:30:51;7.00;92.09
68177;DHT22;56478;50.982;7.032;2023-12-20T02:33:17;6.95;92.29
68177;DHT22;56478;50.982;7.032;2023-12-20T02:35:42;6.89;92.48
68177;DHT22;56478;50.982;7.032;2023-12-20T02:38:08;6.85;92.67
68177;DHT22;56478;50.982;7.032;2023-12-20T02:40:33;6.79;92.14
68177;DHT22;56478;50.982;7.032;2023-12-20T02:42:59;6.76;92.30
68177;DHT22;56478;50.982;7.032;2023-12-20T02:45:25;6.72;92.62
68177;DHT22;56478;50.982;7.032;2023-12-20T02:47:51;6.73;92.79
68177;DHT22;56478;50.982;7.032;2023-12-20T02:50:17;6.76;92.51
68177;DHT22;56478;50.982;7.032;2023-12-20T02:52:44;6.85;92.69
68177;DHT22;56478;50.982;7.032;2023-12-20T02:55:10;6.96;92.27
68177;DHT22;56478;50.982;7.032;2023-12-20T02:57:35;7.01;91.86
68177;DHT22;56478;50.982;7.032;2023-12-20T03:00:01;7.01;91.54
68177;DHT22;56478;50.982;7.032;2023-12-20T03:02:27;7.04;92.20
68177;DHT22;56478;50.982;7.032;2023-12-20T03:04:52;7.10;91.94
68177;DHT22;56478;50.982;7.032;2023-12-20T03:07:19;7.17;92.07
68177;DHT22;56478;50.982;7.032;2023-12-20T03:09:45;7.10;90.96
68177;DHT22;56478;50.982;7.032;2023-12-20T03:12:11;7.10;91.12
68177;DHT22;56478;50.982;7.032;2023-12-20T03:14:36;7.13;91.58
68177;DHT22;56478;50.982;7.032;2023-12-20T03:17:02;7.20;91.16
68177;DHT22;56478;50.982;7.032;2023-12-20T03:19:28;7.18;91.48
68177;DHT22;56478;50.982;7.032;2023-12-20T03:21:54;7.17;90.64
68177;DHT22;56478;50.982;7.032;2023-12-20T03:24:19;7.24;91.20
68177;DHT22;56478;50.982;7.032;2023-12-20T03:26:45;7.24;90.70
68177;DHT22;56478;50.982;7.032;2023-12-20T03:29:11;7.25;90.69
68177;DHT22;56478;50.982;7.032;2023-12-20T03:31:36;7.24;90.18
68177;DHT22;56478;50.982;7.032;2023-12-20T03:34:02;7.23;90.64
68177;DHT22;56478;50.982;7.032;2023-12-20T03:36:27;7.31;90.48
68177;DHT22;56478;50.982;7.032;2023-12-20T03:38:53;7.31;90.30
68177;DHT22;56478;50.982;7.032;2023-12-20T03:41:19;7.34;90.31
68177;DHT22;56478;50.982;7.032;2023-12-20T03:43:45;7.35;91.02
68177;DHT22;56478;50.982;7.032;2023-12-20T03:46:10;7.30;90.26
68177;DHT22;56478;50.982;7.032;2023-12-20T03:48:36;7.27;90.12
68177;DHT22;56478;50.982;7.032;2023-12-20T03:51:01;7.30;89.53
68177;DHT22;56478;50.982;7.032;2023-12-20T03:53:27;7.34;90.32
68177;DHT22;56478;50.982;7.032;2023-12-20T03:55:52;7.27;90.01
68177;DHT22;56478;50.982;7.032;2023-12-20T03:58:18;7.27;90.20
68177;DHT22;56478;50.982;7.032;2023-12-20T04:00:43;7.31;90.43
68177;DHT22;56478;50.982;7.032;2023-12-20T04:03:09;7.30;90.13
68177;DHT22;56478;50.982;7.032;2023-12-20T04:05:37;7.24;90.76
68177;DHT22;56478;50.982;7.032;2023-12-20T04:08:03;7.28;90.52
68177;DHT22;56478;50.982;7.032;2023-12-20T04:10:29;7.25;90.50
68177;DHT22;56478;50.982;7.032;2023-12-20T04:12:54;7.30;91.03
68177;DHT22;56478;50.982;7.032;2023-12-20T04:15:20;7.34;89.87
68177;DHT22;56478;50.982;7.032;2023-12-20T04:17:46;7.32;90.43
68177;DHT22;56478;50.982;7.032;2023-12-20T04:20:11;7.38;91.02
68177;DHT22;56478;50.982;7.032;2023-12-20T04:22:37;7.34;89.78
68177;DHT22;56478;50.982;7.032;2023-12-20T04:25:02;7.32;90.37
68177;DHT22;56478;50.982;7.032;2023-12-20T04:27:28;7.40;90.32
68177;DHT22;56478;50.982;7.032;2023-12-20T04:29:53;7.27;89.33
68177;DHT22;56478;50.982;7.032;2023-12-20T04:32:19;7.28;89.43
68177;DHT22;56478;50.982;7.032;2023-12-20T04:34:45;7.27;89.86
68177;DHT22;56478;50.982;7.032;2023-12-20T04:37:10;7.35;89.08
68177;DHT22;56478;50.982;7.032;2023-12-20T04:39:37;7.40;89.46
68177;DHT22;56478;50.982;7.032;2023-12-20T04:42:03;7.42;89.40
68177;DHT22;56478;50.982;7.032;2023-12-20T04:44:28;7.36;89.28
68177;DHT22;56478;50.982;7.032;2023-12-20T04:46:54;7.34;89.16
68177;DHT22;56478;50.982;7.032;2023-12-20T04:49:21;7.38;89.41
68177;DHT22;56478;50.982;7.032;2023-12-20T04:51:47;7.35;89.14
68177;DHT22;56478;50.982;7.032;2023-12-20T04:54:12;7.27;89.07
68177;DHT22;56478;50.982;7.032;2023-12-20T04:56:38;7.08;89.54
68177;DHT22;56478;50.982;7.032;2023-12-20T04:59:04;7.06;89.66
68177;DHT22;56478;50.982;7.032;2023-12-20T05:01:30;7.10;90.23
68177;DHT22;56478;50.982;7.032;2023-12-20T05:03:55;7.10;89.74
68177;DHT22;56478;50.982;7.032;2023-12-20T05:06:21;7.11;89.33
68177;DHT22;56478;50.982;7.032;2023-12-20T05:08:46;7.13;89.10
68177;DHT22;56478;50.982;7.032;2023-12-20T05:11:12;7.13;88.75
68177;DHT22;56478;50.982;7.032;2023-12-20T05:13:39;7.17;88.86
68177;DHT22;56478;50.982;7.032;2023-12-20T05:16:05;7.25;89.32
68177;DHT22;56478;50.982;7.032;2023-12-20T05:18:30;7.20;89.35
68177;DHT22;56478;50.982;7.032;2023-12-20T05:20:56;7.13;88.59
68177;DHT22;56478;50.982;7.032;2023-12-20T05:23:22;7.06;88.90
68177;DHT22;56478;50.982;7.032;2023-12-20T05:25:47;6.96;88.87
68177;DHT22;56478;50.982;7.032;2023-12-20T05:28:14;6.90;89.02
68177;DHT22;56478;50.982;7.032;2023-12-20T05:30:40;6.95;89.42
68177;DHT22;56478;50.982;7.032;2023-12-20T05:33:06;6.86;89.17
68177;DHT22;56478;50.982;7.032;2023-12-20T05:35:31;6.95;89.01
68177;DHT22;56478;50.982;7.032;2023-12-20T05:37:57;6.96;88.92
68177;DHT22;56478;50.982;7.032;2023-12-20T05:40:22;6.93;89.03
68177;DHT22;56478;50.982;7.032;2023-12-20T05:42:48;6.95;88.76
68177;DHT22;56478;50.982;7.032;2023-12-20T05:45:14;6.99;89.55
68177;DHT22;56478;50.982;7.032;2023-12-20T05:47:39;6.82;89.19
68177;DHT22;56478;50.982;7.032;2023-12-20T05:50:05;6.82;89.24
68177;DHT22;56478;50.982;7.032;2023-12-20T05:52:31;6.72;89.22
68177;DHT22;56478;50.982;7.032;2023-12-20T05:54:57;6.65;89.52
68177;DHT22;56478;50.982;7.032;2023-12-20T05:57:26;6.62;89.48
68177;DHT22;56478;50.982;7.032;2023-12-20T05:59:51;6.62;89.61
68177;DHT22;56478;50.982;7.032;2023-12-20T06:02:17;6.71;89.95
68177;DHT22;56478;50.982;7.032;2023-12-20T06:04:42;6.76;89.62
68177;DHT22;56478;50.982;7.032;2023-12-20T06:07:11;6.78;89.58
68177;DHT22;56478;50.982;7.032;2023-12-20T06:09:37;6.78;89.50
68177;DHT22;56478;50.982;7.032;2023-12-20T06:12:03;6.79;89.03
68177;DHT22;56478;50.982;7.032;2023-12-20T06:14:28;6.83;89.60
68177;DHT22;56478;50.982;7.032;2023-12-20T06:16:56;6.76;89.44
68177;DHT22;56478;50.982;7.032;2023-12-20T06:19:21;6.83;89.04
68177;DHT22;56478;50.982;7.032;2023-12-20T06:21:47;6.85;89.54
68177;DHT22;56478;50.982;7.032;2023-12-20T06:24:13;6.93;89.97
68177;DHT22;56478;50.982;7.032;2023-12-20T06:26:38;6.92;89.31
68177;DHT22;56478;50.982;7.032;2023-12-20T06:29:04;6.97;88.97
68177;DHT22;56478;50.982;7.032;2023-12-20T06:31:29;6.95;89.84
68177;DHT22;56478;50.982;7.032;2023-12-20T06:33:55;6.95;89.35
68177;DHT22;56478;50.982;7.032;2023-12-20T06:36:26;6.97;89.23
68177;DHT22;56478;50.982;7.032;2023-12-20T06:38:52;6.97;89.17
68177;DHT22;56478;50.982;7.032;2023-12-20T06:41:17;6.99;89.07
68177;DHT22;56478;50.982;7.032;2023-12-20T06:43:43;7.10;89.04
68177;DHT22;56478;50.982;7.032;2023-12-20T06:46:08;7.11;88.81
68177;DHT22;56478;50.982;7.032;2023-12-20T06:48:34;7.14;88.82
68177;DHT22;56478;50.982;7.032;2023-12-20T06:51:00;7.10;89.04
68177;DHT22;56478;50.982;7.032;2023-12-20T06:53:29;7.23;89.64
68177;DHT22;56478;50.982;7.032;2023-12-20T06:58:44;7.17;88.60
68177;DHT22;56478;50.982;7.032;2023-12-20T07:01:12;7.20;88.47
68177;DHT22;56478;50.982;7.032;2023-12-20T07:03:38;7.25;88.27
68177;DHT22;56478;50.982;7.032;2023-12-20T07:06:05;7.27;88.27
68177;DHT22;56478;50.982;7.032;2023-12-20T07:08:30;7.23;88.30
68177;DHT22;56478;50.982;7.032;2023-12-20T07:10:56;7.30;88.14
68177;DHT22;56478;50.982;7.032;2023-12-20T07:13:22;7.23;88.06
68177;DHT22;56478;50.982;7.032;2023-12-20T07:15:48;7.31;87.26
68177;DHT22;56478;50.982;7.032;2023-12-20T07:18:22;7.32;87.82
68177;DHT22;56478;50.982;7.032;2023-12-20T07:20:48;7.36;87.63
68177;DHT22;56478;50.982;7.032;2023-12-20T07:23:13;7.40;87.84
68177;DHT22;56478;50.982;7.032;2023-12-20T07:25:39;7.34;87.68
68177;DHT22;56478;50.982;7.032;2023-12-20T07:28:04;7.27;86.69
68177;DHT22;56478;50.982;7.032;2023-12-20T07:30:30;7.32;86.75
68177;DHT22;56478;50.982;7.032;2023-12-20T07:32:56;7.36;87.26
68177;DHT22;56478;50.982;7.032;2023-12-20T07:35:23;7.42;86.49
68177;DHT22;56478;50.982;7.032;2023-12-20T07:37:48;7.44;86.59
68177;DHT22;56478;50.982;7.032;2023-12-20T07:40:14;7.47;86.54
68177;DHT22;56478;50.982;7.032;2023-12-20T07:42:42;7.44;86.56
68177;DHT22;56478;50.982;7.032;2023-12-20T07:45:07;7.42;86.46
68177;DHT22;56478;50.982;7.032;2023-12-20T07:47:34;7.47;86.43
68177;DHT22;56478;50.982;7.032;2023-12-20T07:49:59;7.42;86.99
68177;DHT22;56478;50.982;7.032;2023-12-20T07:52:25;7.49;86.44
68177;DHT22;56478;50.982;7.032;2023-12-20T07:54:51;7.45;86.62
68177;DHT22;56478;50.982;7.032;2023-12-20T07:57:17;7.47;87.20
68177;DHT22;56478;50.982;7.032;2023-12-20T07:59:42;7.44;86.42
68177;DHT22;56478;50.982;7.032;2023-12-20T08:02:09;7.49;86.29
68177;DHT22;56478;50.982;7.032;2023-12-20T08:04:35;7.41;86.24
68177;DHT22;56478;50.982;7.032;2023-12-20T08:07:00;7.38;86.52
68177;DHT22;56478;50.982;7.032;2023-12-20T08:09:26;7.47;86.35
68177;DHT22;56478;50.982;7.032;2023-12-20T08:11:51;7.49;86.52
68177;DHT22;56478;50.982;7.032;2023-12-20T08:14:17;7.51;85.90
68177;DHT22;56478;50.982;7.032;2023-12-20T08:16:42;7.54;85.72
68177;DHT22;56478;50.982;7.032;2023-12-20T08:19:08;7.52;85.92
68177;DHT22;56478;50.982;7.032;2023-12-20T08:21:34;7.51;85.80
68177;DHT22;56478;50.982;7.032;2023-12-20T08:23:59;7.54;86.07
68177;DHT22;56478;50.982;7.032;2023-12-20T08:26:26;7.56;85.92
68177;DHT22;56478;50.982;7.032;2023-12-20T08:28:51;7.59;86.07
68177;DHT22;56478;50.982;7.032;2023-12-20T08:31:17;7.54;85.84
68177;DHT22;56478;50.982;7.032;2023-12-20T08:33:47;7.54;85.14
68177;DHT22;56478;50.982;7.032;2023-12-20T08:36:13;7.47;85.56
68177;DHT22;56478;50.982;7.032;2023-12-20T08:38:38;7.55;85.54
68177;DHT22;56478;50.982;7.032;2023-12-20T08:41:04;7.54;85.56
68177;DHT22;56478;50.982;7.032;2023-12-20T08:43:36;7.58;84.58
68177;DHT22;56478;50.982;7.032;2023-12-20T08:46:01;7.56;84.89
68177;DHT22;56478;50.982;7.032;2023-12-20T08:48:27;7.55;84.75
68177;DHT22;56478;50.982;7.032;2023-12-20T08:50:54;7.54;85.03
68177;DHT22;56478;50.982;7.032;2023-12-20T08:53:20;7.55;85.00
68177;DHT22;56478;50.982;7.032;2023-12-20T08:55:46;7.62;84.94
68177;DHT22;56478;50.982;7.032;2023-12-20T08:58:12;7.52;85.02
68177;DHT22;56478;50.982;7.032;2023-12-20T09:00:38;7.52;85.31
68177;DHT22;56478;50.982;7.032;2023-12-20T09:03:04;7.61;84.51
68177;DHT22;56478;50.982;7.032;2023-12-20T09:05:29;7.61;85.04
68177;DHT22;56478;50.982;7.032;2023-12-20T09:07:55;7.52;84.79
68177;DHT22;56478;50.982;7.032;2023-12-20T09:10:21;7.51;85.10
68177;DHT22;56478;50.982;7.032;2023-12-20T09:12:50;7.59;85.94
68177;DHT22;56478;50.982;7.032;2023-12-20T09:15:16;7.59;84.73
68177;DHT22;56478;50.982;7.032;2023-12-20T09:17:41;7.65;85.46
68177;DHT22;56478;50.982;7.032;2023-12-20T09:20:07;7.59;84.89
68177;DHT22;56478;50.982;7.032;2023-12-20T09:22:33;7.55;85.98
68177;DHT22;56478;50.982;7.032;2023-12-20T09:24:59;7.61;85.22
68177;DHT22;56478;50.982;7.032;2023-12-20T09:27:25;7.54;84.90
68177;DHT22;56478;50.982;7.032;2023-12-20T09:29:51;7.55;84.66
68177;DHT22;56478;50.982;7.032;2023-12-20T09:32:18;7.58;84.94
68177;DHT22;56478;50.982;7.032;2023-12-20T09:34:45;7.65;84.67
68177;DHT22;56478;50.982;7.032;2023-12-20T09:37:11;7.62;85.13
68177;DHT22;56478;50.982;7.032;2023-12-20T09:39:36;7.69;85.38
68177;DHT22;56478;50.982;7.032;2023-12-20T09:42:03;7.62;84.66
68177;DHT22;56478;50.982;7.032;2023-12-20T09:44:29;7.72;84.67
68177;DHT22;56478;50.982;7.032;2023-12-20T09:46:56;7.70;84.79
68177;DHT22;56478;50.982;7.032;2023-12-20T09:49:21;7.77;84.73
68177;DHT22;56478;50.982;7.032;2023-12-20T09:51:47;7.83;84.27
68177;DHT22;56478;50.982;7.032;2023-12-20T09:54:14;7.80;84.54
68177;DHT22;56478;50.982;7.032;2023-12-20T09:56:40;7.82;84.13
68177;DHT22;56478;50.982;7.032;2023-12-20T09:59:06;7.85;84.50
68177;DHT22;56478;50.982;7.032;2023-12-20T10:01:32;7.83;84.20
68177;DHT22;56478;50.982;7.032;2023-12-20T10:03:58;7.83;84.03
68177;DHT22;56478;50.982;7.032;2023-12-20T10:06:25;7.77;84.09
68177;DHT22;56478;50.982;7.032;2023-12-20T10:08:51;7.79;83.88
68177;DHT22;56478;50.982;7.032;2023-12-20T10:11:17;7.86;84.70
68177;DHT22;56478;50.982;7.032;2023-12-20T10:13:45;7.75;84.50
68177;DHT22;56478;50.982;7.032;2023-12-20T10:16:12;7.79;84.21
68177;DHT22;56478;50.982;7.032;2023-12-20T10:18:37;7.87;83.82
68177;DHT22;56478;50.982;7.032;2023-12-20T10:21:03;7.90;84.03
68177;DHT22;56478;50.982;7.032;2023-12-20T10:23:29;7.87;84.46
68177;DHT22;56478;50.982;7.032;2023-12-20T10:25:56;7.87;84.17
68177;DHT22;56478;50.982;7.032;2023-12-20T10:28:23;7.90;83.59
68177;DHT22;56478;50.982;7.032;2023-12-20T10:30:53;7.90;84.22
68177;DHT22;56478;50.982;7.032;2023-12-20T10:33:25;7.93;83.79
68177;DHT22;56478;50.982;7.032;2023-12-20T10:35:51;7.91;83.92
68177;DHT22;56478;50.982;7.032;2023-12-20T10:38:17;7.86;83.78
68177;DHT22;56478;50.982;7.032;2023-12-20T10:40:43;7.86;83.89
68177;DHT22;56478;50.982;7.032;2023-12-20T10:43:10;7.91;83.90
68177;DHT22;56478;50.982;7.032;2023-12-20T10:45:36;7.89;83.82
68177;DHT22;56478;50.982;7.032;2023-12-20T10:48:02;7.90;84.33
68177;DHT22;56478;50.982;7.032;2023-12-20T10:50:28;7.93;83.75
68177;DHT22;56478;50.982;7.032;2023-12-20T10:52:55;7.96;83.34
68177;DHT22;56478;50.982;7.032;2023-12-20T10:55:21;7.96;84.16
68177;DHT22;56478;50.982;7.032;2023-12-20T10:57:47;7.94;84.19
68177;DHT22;56478;50.982;7.032;2023-12-20T11:00:16;7.94;84.24
68177;DHT22;56478;50.982;7.032;2023-12-20T11:02:43;7.91;84.43
68177;DHT22;56478;50.982;7.032;2023-12-20T11:07:58;8.01;83.61
68177;DHT22;56478;50.982;7.032;2023-12-20T11:10:31;8.00;83.96
68177;DHT22;56478;50.982;7.032;2023-12-20T11:13:12;7.96;83.53
68177;DHT22;56478;50.982;7.032;2023-12-20T11:15:39;8.00;83.98
68177;DHT22;56478;50.982;7.032;2023-12-20T11:18:05;8.05;83.78
68177;DHT22;56478;50.982;7.032;2023-12-20T11:20:38;8.00;83.18
68177;DHT22;56478;50.982;7.032;2023-12-20T11:23:04;7.91;83.81
68177;DHT22;56478;50.982;7.032;2023-12-20T11:25:33;7.93;83.52
68177;DHT22;56478;50.982;7.032;2023-12-20T11:28:11;7.93;84.05
68177;DHT22;56478;50.982;7.032;2023-12-20T11:30:47;7.96;83.30
68177;DHT22;56478;50.982;7.032;2023-12-20T11:33:15;7.97;83.02
68177;DHT22;56478;50.982;7.032;2023-12-20T11:35:42;8.04;82.98
68177;DHT22;56478;50.982;7.032;2023-12-20T11:38:10;8.05;83.15
68177;DHT22;56478;50.982;7.032;2023-12-20T11:40:36;8.00;83.60
68177;DHT22;56478;50.982;7.032;2023-12-20T11:43:02;8.03;83.57
68177;DHT22;56478;50.982;7.032;2023-12-20T11:45:28;8.07;83.49
68177;DHT22;56478;50.982;7.032;2023-12-20T11:47:54;8.04;82.95
68177;DHT22;56478;50.982;7.032;2023-12-20T11:50:20;8.07;82.74
68177;DHT22;56478;50.982;7.032;2023-12-20T11:52:46;8.11;82.83
68177;DHT22;56478;50.982;7.032;2023-12-20T11:55:12;8.14;82.69
68177;DHT22;56478;50.982;7.032;2023-12-20T11:57:38;8.14;82.83
68177;DHT22;56478;50.982;7.032;2023-12-20T12:00:04;8.18;82.58
68177;DHT22;56478;50.982;7.032;2023-12-20T12:02:30;8.17;83.14
68177;DHT22;56478;50.982;7.032;2023-12-20T12:04:55;8.14;83.11
68177;DHT22;56478;50.982;7.032;2023-12-20T12:07:22;8.10;82.63
68177;DHT22;56478;50.982;7.032;2023-12-20T12:09:47;8.10;83.03
68177;DHT22;56478;50.982;7.032;2023-12-20T12:12:13;8.15;82.61
68177;DHT22;56478;50.982;7.032;2023-12-20T12:14:39;8.14;82.66
68177;DHT22;56478;50.982;7.032;2023-12-20T12:17:11;8.20;82.29
68177;DHT22;56478;50.982;7.032;2023-12-20T12:19:38;8.11;82.89
68177;DHT22;56478;50.982;7.032;2023-12-20T12:22:07;8.10;83.61
68177;DHT22;56478;50.982;7.032;2023-12-20T12:24:34;8.07;83.75
68177;DHT22;56478;50.982;7.032;2023-12-20T12:27:00;8.08;83.64
68177;DHT22;56478;50.982;7.032;2023-12-20T12:29:25;8.07;83.55
68177;DHT22;56478;50.982;7.032;2023-12-20T12:31:51;8.08;83.47
68177;DHT22;56478;50.982;7.032;2023-12-20T12:34:19;8.04;83.38
68177;DHT22;56478;50.982;7.032;2023-12-20T12:36:46;8.04;83.77
68177;DHT22;56478;50.982;7.032;2023-12-20T12:39:15;8.03;83.68
68177;DHT22;56478;50.982;7.032;2023-12-20T12:41:43;7.98;84.00
68177;DHT22;56478;50.982;7.032;2023-12-20T12:44:09;8.05;84.07
68177;DHT22;56478;50.982;7.032;2023-12-20T12:46:34;8.03;83.94
68177;DHT22;56478;50.982;7.032;2023-12-20T12:49:00;8.17;83.77
68177;DHT22;56478;50.982;7.032;2023-12-20T12:51:26;8.20;83.48
68177;DHT22;56478;50.982;7.032;2023-12-20T12:53:51;8.22;83.46
68177;DHT22;56478;50.982;7.032;2023-12-20T12:56:17;8.24;83.81
68177;DHT22;56478;50.982;7.032;2023-12-20T12:58:43;8.21;83.73
68177;DHT22;56478;50.982;7.032;2023-12-20T13:01:09;8.22;83.53
68177;DHT22;56478;50.982;7.032;2023-12-20T13:03:35;8.18;83.61
68177;DHT22;56478;50.982;7.032;2023-12-20T13:06:00;8.24;84.78
68177;DHT22;56478;50.982;7.032;2023-12-20T13:08:26;8.24;83.88
68177;DHT22;56478;50.982;7.032;2023-12-20T13:10:52;8.22;84.17
68177;DHT22;56478;50.982;7.032;2023-12-20T13:13:17;8.24;83.98
68177;DHT22;56478;50.982;7.032;2023-12-20T13:15:43;8.24;84.87
68177;DHT22;56478;50.982;7.032;2023-12-20T13:18:16;8.29;84.50
68177;DHT22;56478;50.982;7.032;2023-12-20T13:20:43;8.38;84.64
68177;DHT22;56478;50.982;7.032;2023-12-20T13:23:09;8.29;84.27
68177;DHT22;56478;50.982;7.032;2023-12-20T13:25:35;8.48;84.32
68177;DHT22;56478;50.982;7.032;2023-12-20T13:28:01;8.48;84.15
68177;DHT22;56478;50.982;7.032;2023-12-20T13:30:28;8.48;83.74
68177;DHT22;56478;50.982;7.032;2023-12-20T13:32:53;8.48;83.97
68177;DHT22;56478;50.982;7.032;2023-12-20T13:35:19;8.41;84.18
68177;DHT22;56478;50.982;7.032;2023-12-20T13:37:45;8.38;85.05
68177;DHT22;56478;50.982;7.032;2023-12-20T13:40:11;8.41;84.46
68177;DHT22;56478;50.982;7.032;2023-12-20T13:42:38;8.39;84.86
68177;DHT22;56478;50.982;7.032;2023-12-20T13:45:03;8.35;84.61
68177;DHT22;56478;50.982;7.032;2023-12-20T13:47:30;8.37;84.80
68177;DHT22;56478;50.982;7.032;2023-12-20T13:49:56;8.38;84.27
68177;DHT22;56478;50.982;7.032;2023-12-20T13:52:22;8.41;84.70
68177;DHT22;56478;50.982;7.032;2023-12-20T13:54:48;8.42;84.49
68177;DHT22;56478;50.982;7.032;2023-12-20T13:57:14;8.34;84.87
68177;DHT22;56478;50.982;7.032;2023-12-20T13:59:40;8.29;85.20
68177;DHT22;56478;50.982;7.032;2023-12-20T14:02:05;8.35;85.13
68177;DHT22;56478;50.982;7.032;2023-12-20T14:04:31;8.38;84.79
68177;DHT22;56478;50.982;7.032;2023-12-20T14:06:57;8.34;84.54
68177;DHT22;56478;50.982;7.032;2023-12-20T14:09:23;8.29;84.85
68177;DHT22;56478;50.982;7.032;2023-12-20T14:11:48;8.28;84.96
68177;DHT22;56478;50.982;7.032;2023-12-20T14:14:14;8.35;85.00
68177;DHT22;56478;50.982;7.032;2023-12-20T14:16:40;8.29;84.74
68177;DHT22;56478;50.982;7.032;2023-12-20T14:19:10;8.31;84.91
68177;DHT22;56478;50.982;7.032;2023-12-20T14:21:36;8.31;85.21
68177;DHT22;56478;50.982;7.032;2023-12-20T14:24:01;8.27;85.13
68177;DHT22;56478;50.982;7.032;2023-12-20T14:26:27;8.24;85.64
68177;DHT22;56478;50.982;7.032;2023-12-20T14:28:53;8.29;85.57
68177;DHT22;56478;50.982;7.032;2023-12-20T14:31:18;8.18;85.94
68177;DHT22;56478;50.982;7.032;2023-12-20T14:33:44;8.24;85.59
68177;DHT22;56478;50.982;7.032;2023-12-20T14:36:10;8.22;85.22
68177;DHT22;56478;50.982;7.032;2023-12-20T14:38:35;8.27;85.18
68177;DHT22;56478;50.982;7.032;2023-12-20T14:41:01;8.32;85.41
68177;DHT22;56478;50.982;7.032;2023-12-20T14:43:29;8.34;85.09
68177;DHT22;56478;50.982;7.032;2023-12-20T14:45:54;8.39;84.95
68177;DHT22;56478;50.982;7.032;2023-12-20T14:48:20;8.37;84.79
68177;DHT22;56478;50.982;7.032;2023-12-20T14:50:46;8.38;84.92
68177;DHT22;56478;50.982;7.032;2023-12-20T14:53:14;8.42;84.64
68177;DHT22;56478;50.982;7.032;2023-12-20T14:55:41;8.45;84.55
68177;DHT22;56478;50.982;7.032;2023-12-20T14:58:07;8.41;84.80
68177;DHT22;56478;50.982;7.032;2023-12-20T15:00:32;8.44;84.98
68177;DHT22;56478;50.982;7.032;2023-12-20T15:02:59;8.41;85.16
68177;DHT22;56478;50.982;7.032;2023-12-20T15:05:24;8.39;84.97
68177;DHT22;56478;50.982;7.032;2023-12-20T15:07:50;8.39;85.43
68177;DHT22;56478;50.982;7.032;2023-12-20T15:10:15;8.39;85.11
68177;DHT22;56478;50.982;7.032;2023-12-20T15:12:44;8.45;84.99
68177;DHT22;56478;50.982;7.032;2023-12-20T15:15:13;8.49;84.84
68177;DHT22;56478;50.982;7.032;2023-12-20T15:17:39;8.48;84.91
68177;DHT22;56478;50.982;7.032;2023-12-20T15:20:04;8.45;85.01
68177;DHT22;56478;50.982;7.032;2023-12-20T15:22:30;8.46;85.21
68177;DHT22;56478;50.982;7.032;2023-12-20T15:24:58;8.48;85.15
68177;DHT22;56478;50.982;7.032;2023-12-20T15:27:24;8.49;84.99
68177;DHT22;56478;50.982;7.032;2023-12-20T15:29:50;8.55;85.04
68177;DHT22;56478;50.982;7.032;2023-12-20T15:32:16;8.49;85.15
68177;DHT22;56478;50.982;7.032;2023-12-20T15:34:44;8.49;85.05
68177;DHT22;56478;50.982;7.032;2023-12-20T15:37:09;8.48;85.52
68177;DHT22;56478;50.982;7.032;2023-12-20T15:39:35;8.50;85.55
68177;DHT22;56478;50.982;7.032;2023-12-20T15:42:01;8.48;85.55